Time;durP1;ratioP1;P1;durP2;ratioP2;P2;SDS_P1;SDS_P2;PMS_P1;PMS_P2;Temp;Humidity;BMP_temperature;BMP_pressure;BME280_temperature;BME280_humidity;BME280_pressure;Samples;Min_cycle;Max_cycle;Signal;HPM_P1;HPM_P2
2021/07/23 00:00:59;;;;;;;2.00;0.20;;;12.60;82.10;;;;;;4918214;29;20028;-66
2021/07/23 00:03:24;;;;;;;0.73;0.20;;;12.50;82.50;;;;;;4918114;29;20068;-66
2021/07/23 00:05:50;;;;;;;0.30;0.25;;;12.50;82.90;;;;;;4918256;29;20424;-66
2021/07/23 00:08:16;;;;;;;0.75;0.30;;;12.40;83.00;;;;;;4917890;29;20035;-66
2021/07/23 00:10:41;;;;;;;0.35;0.35;;;12.40;83.30;;;;;;4900867;29;20040;-66
2021/07/23 00:13:07;;;;;;;0.57;0.28;;;12.40;83.60;;;;;;4917837;29;20358;-66
2021/07/23 00:15:33;;;;;;;0.50;0.30;;;12.30;83.70;;;;;;4917698;29;20036;-66
2021/07/23 00:17:58;;;;;;;0.30;0.30;;;12.30;83.90;;;;;;4916950;29;20037;-66
2021/07/23 00:20:25;;;;;;;0.93;0.40;;;12.20;84.00;;;;;;4918121;29;20086;-66
2021/07/23 00:22:50;;;;;;;0.30;0.30;;;12.20;84.50;;;;;;4917935;29;20028;-66
2021/07/23 00:25:16;;;;;;;2.28;0.40;;;12.20;84.60;;;;;;4918043;29;20028;-66
2021/07/23 00:27:42;;;;;;;0.30;0.25;;;12.20;84.70;;;;;;4918097;29;20080;-67
2021/07/23 00:30:08;;;;;;;0.40;0.40;;;12.10;85.00;;;;;;4917636;29;20399;-66
2021/07/23 00:32:35;;;;;;;0.65;0.30;;;12.10;85.10;;;;;;4917384;29;20032;-67
2021/07/23 00:35:01;;;;;;;0.88;0.30;;;12.10;85.10;;;;;;4917938;29;20047;-66
2021/07/23 00:37:27;;;;;;;0.68;0.30;;;12.10;85.00;;;;;;4917341;29;20024;-66
2021/07/23 00:39:52;;;;;;;1.95;0.30;;;12.00;85.30;;;;;;4917220;29;20099;-66
2021/07/23 00:42:19;;;;;;;0.30;0.30;;;12.00;85.40;;;;;;4917356;29;20032;-66
2021/07/23 00:44:45;;;;;;;0.30;0.30;;;12.00;85.70;;;;;;4917551;29;20087;-66
2021/07/23 00:47:11;;;;;;;0.20;0.20;;;11.90;85.80;;;;;;4917579;29;20020;-66
2021/07/23 00:49:37;;;;;;;0.45;0.30;;;11.90;86.00;;;;;;4917424;29;20035;-66
2021/07/23 00:52:03;;;;;;;0.22;0.22;;;11.80;86.60;;;;;;4917109;29;20028;-66
2021/07/23 00:54:30;;;;;;;0.40;0.40;;;11.70;86.80;;;;;;4917080;29;20059;-66
2021/07/23 00:56:56;;;;;;;0.85;0.28;;;11.70;86.60;;;;;;4917004;29;20024;-66
2021/07/23 00:59:22;;;;;;;3.53;0.55;;;11.80;86.70;;;;;;4917210;29;20051;-66
2021/07/23 01:01:49;;;;;;;0.47;0.30;;;11.70;86.90;;;;;;4917142;29;20028;-66
2021/07/23 01:04:15;;;;;;;0.20;0.20;;;11.80;86.90;;;;;;4917215;29;20036;-66
2021/07/23 01:06:40;;;;;;;1.33;0.20;;;11.70;87.70;;;;;;4916856;29;20124;-66
2021/07/23 01:09:06;;;;;;;0.90;0.70;;;11.60;87.30;;;;;;4916983;29;20059;-66
2021/07/23 01:11:32;;;;;;;0.65;0.30;;;11.60;87.80;;;;;;4916945;29;20103;-66
2021/07/23 01:14:01;;;;;;;0.30;0.30;;;11.50;88.00;;;;;;4916710;29;20103;-66
2021/07/23 01:16:26;;;;;;;2.78;0.38;;;11.40;88.10;;;;;;4917104;29;20039;-66
2021/07/23 01:52:33;;;;;;;0.30;0.30;;;10.80;90.60;;;;;;5573562;23;20340;-66
2021/07/23 01:54:59;;;;;;;0.80;0.32;;;10.70;90.70;;;;;;4916356;29;20071;-66
2021/07/23 01:57:25;;;;;;;0.30;0.30;;;10.60;90.90;;;;;;4916345;29;20035;-66
2021/07/23 01:59:50;;;;;;;5.15;0.40;;;10.60;91.20;;;;;;4916026;29;20078;-67
2021/07/23 02:02:16;;;;;;;2.35;0.55;;;10.50;91.40;;;;;;4915985;29;20052;-67
2021/07/23 02:04:42;;;;;;;0.28;0.28;;;10.50;91.50;;;;;;4916120;29;20061;-66
2021/07/23 02:07:07;;;;;;;0.52;0.30;;;10.50;91.60;;;;;;4915900;29;20032;-67
2021/07/23 02:09:33;;;;;;;0.30;0.30;;;10.50;91.80;;;;;;4916217;29;20024;-67
2021/07/23 02:11:59;;;;;;;0.85;0.30;;;10.40;91.90;;;;;;4916011;29;20032;-67
2021/07/23 02:14:28;;;;;;;0.30;0.30;;;10.40;92.20;;;;;;4915725;29;20056;-67
2021/07/23 02:16:54;;;;;;;0.38;0.32;;;10.40;92.30;;;;;;4916185;29;20039;-67
2021/07/23 02:19:20;;;;;;;0.35;0.28;;;10.50;92.60;;;;;;4915609;29;20047;-67
2021/07/23 02:21:46;;;;;;;0.25;0.25;;;10.40;92.70;;;;;;4915841;29;20020;-67
2021/07/23 02:24:12;;;;;;;0.30;0.30;;;10.40;93.00;;;;;;4915798;29;20039;-67
2021/07/23 02:26:37;;;;;;;0.30;0.22;;;10.50;93.10;;;;;;4915874;29;20034;-67
2021/07/23 02:29:03;;;;;;;0.20;0.20;;;10.50;93.20;;;;;;4915660;29;20028;-67
2021/07/23 02:31:29;;;;;;;0.30;0.30;;;10.50;93.30;;;;;;4915961;29;20612;-67
2021/07/23 02:33:55;;;;;;;2.85;0.50;;;10.60;93.30;;;;;;4915603;29;20447;-67
2021/07/23 02:36:20;;;;;;;0.50;0.30;;;10.60;93.40;;;;;;4915616;29;20028;-67
2021/07/23 02:38:46;;;;;;;0.30;0.30;;;10.60;93.50;;;;;;4915854;29;20040;-67
2021/07/23 02:41:12;;;;;;;0.70;0.35;;;10.60;93.60;;;;;;4918833;29;20039;-67
2021/07/23 02:43:38;;;;;;;0.50;0.30;;;10.60;93.70;;;;;;4919779;29;20032;-67
2021/07/23 02:46:03;;;;;;;2.75;0.40;;;10.60;93.90;;;;;;4919793;29;20544;-67
2021/07/23 02:48:29;;;;;;;0.20;0.20;;;10.70;93.90;;;;;;4919304;29;20028;-67
2021/07/23 02:50:55;;;;;;;0.70;0.20;;;10.70;94.00;;;;;;4919514;29;20265;-67
2021/07/23 02:53:22;;;;;;;1.00;0.40;;;10.70;94.00;;;;;;4919076;29;20127;-67
2021/07/23 02:55:54;;;;;;;0.30;0.30;;;10.70;94.20;;;;;;4919612;29;20456;-67
2021/07/23 02:58:19;;;;;;;0.25;0.25;;;10.70;94.20;;;;;;4919070;29;20039;-67
2021/07/23 03:00:45;;;;;;;0.22;0.20;;;10.70;94.30;;;;;;4919425;29;20032;-67
2021/07/23 03:03:11;;;;;;;0.38;0.30;;;10.80;94.50;;;;;;4919236;29;20083;-67
2021/07/23 03:05:37;;;;;;;0.30;0.30;;;10.80;94.70;;;;;;4919276;29;20040;-67
2021/07/23 03:08:03;;;;;;;0.30;0.30;;;10.80;94.80;;;;;;4919065;29;20040;-67
2021/07/23 03:10:29;;;;;;;0.40;0.30;;;10.90;94.80;;;;;;4919009;29;20260;-67
2021/07/23 03:12:55;;;;;;;1.17;0.40;;;10.90;94.80;;;;;;4918982;29;20068;-67
2021/07/23 03:15:20;;;;;;;0.20;0.20;;;11.00;94.90;;;;;;4919204;29;20138;-67
2021/07/23 03:17:46;;;;;;;0.30;0.30;;;11.00;95.00;;;;;;4919146;29;20471;-67
2021/07/23 03:20:12;;;;;;;2.28;0.40;;;11.10;95.00;;;;;;4901869;29;20361;-67
2021/07/23 03:22:38;;;;;;;2.10;0.30;;;11.20;95.10;;;;;;4919089;29;20032;-67
2021/07/23 03:25:04;;;;;;;0.30;0.30;;;11.30;95.10;;;;;;4918933;29;20503;-67
2021/07/23 03:27:30;;;;;;;0.30;0.30;;;11.40;95.00;;;;;;4918974;29;20028;-67
2021/07/23 03:29:56;;;;;;;0.30;0.30;;;11.50;94.90;;;;;;4919114;29;20495;-67
2021/07/23 03:32:22;;;;;;;0.85;0.35;;;11.60;94.70;;;;;;4918857;29;20503;-67
2021/07/23 03:34:47;;;;;;;2.28;0.43;;;11.70;94.70;;;;;;4918653;29;20132;-67
2021/07/23 03:37:13;;;;;;;0.30;0.30;;;11.70;94.80;;;;;;4918554;29;20100;-67
2021/07/23 03:39:39;;;;;;;0.30;0.30;;;11.70;94.70;;;;;;4918825;29;20044;-67
2021/07/23 03:42:05;;;;;;;0.20;0.20;;;11.70;94.70;;;;;;4918627;29;20393;-67
2021/07/23 03:44:31;;;;;;;0.30;0.30;;;11.70;94.80;;;;;;4918604;29;20028;-67
2021/07/23 03:46:56;;;;;;;0.47;0.40;;;11.60;94.70;;;;;;4918773;29;20379;-67
2021/07/23 03:49:22;;;;;;;0.30;0.30;;;11.60;94.90;;;;;;4918484;29;20079;-67
2021/07/23 03:51:48;;;;;;;0.55;0.40;;;11.60;94.90;;;;;;4917798;29;20024;-67
2021/07/23 03:54:13;;;;;;;1.33;0.32;;;11.70;95.00;;;;;;4918462;29;20038;-67
2021/07/23 03:56:39;;;;;;;0.30;0.30;;;12.00;95.10;;;;;;4918318;29;20024;-67
2021/07/23 03:59:05;;;;;;;0.65;0.40;;;12.50;94.40;;;;;;4918419;29;20154;-67
2021/07/23 04:01:31;;;;;;;0.50;0.40;;;13.10;93.40;;;;;;4918094;29;20025;-67
2021/07/23 04:03:57;;;;;;;0.30;0.30;;;13.60;92.30;;;;;;4918133;29;20072;-67
2021/07/23 04:06:23;;;;;;;0.40;0.30;;;14.10;91.10;;;;;;4918025;29;20055;-67
2021/07/23 04:08:50;;;;;;;0.28;0.28;;;14.50;90.20;;;;;;4918028;29;20036;-67
2021/07/23 04:11:17;;;;;;;0.20;0.20;;;14.70;89.20;;;;;;4918155;29;20027;-67
2021/07/23 04:13:43;;;;;;;0.20;0.20;;;14.90;88.10;;;;;;4917904;29;20484;-67
2021/07/23 04:16:09;;;;;;;0.20;0.20;;;15.10;87.50;;;;;;4918263;29;20028;-67
2021/07/23 04:18:35;;;;;;;0.20;0.20;;;15.10;86.50;;;;;;4917996;29;20052;-67
2021/07/23 04:21:07;;;;;;;1.45;0.20;;;15.20;85.80;;;;;;4917978;29;20500;-67
2021/07/23 04:23:33;;;;;;;0.17;0.10;;;15.60;85.20;;;;;;4917909;29;20080;-67
2021/07/23 04:25:59;;;;;;;0.28;0.28;;;15.90;83.80;;;;;;4918174;29;20024;-67
2021/07/23 04:28:25;;;;;;;0.15;0.10;;;16.10;82.10;;;;;;4917809;29;20567;-67
2021/07/23 04:30:50;;;;;;;0.55;0.20;;;16.50;80.60;;;;;;4917750;29;20028;-67
2021/07/23 04:33:16;;;;;;;0.20;0.20;;;16.80;79.50;;;;;;4917495;29;20076;-67
2021/07/23 04:35:42;;;;;;;0.80;0.20;;;17.10;78.10;;;;;;4917998;29;20032;-67
2021/07/23 04:38:07;;;;;;;2.20;0.20;;;17.30;76.40;;;;;;4917576;29;20535;-67
2021/07/23 04:40:33;;;;;;;0.45;0.10;;;17.50;76.30;;;;;;4917435;29;20079;-67
2021/07/23 04:42:59;;;;;;;0.20;0.15;;;17.60;74.70;;;;;;4917707;29;20308;-67
2021/07/23 04:45:24;;;;;;;0.20;0.20;;;17.70;73.70;;;;;;4917635;29;20499;-67
2021/07/23 04:47:50;;;;;;;0.30;0.10;;;17.90;73.80;;;;;;4917577;29;20123;-67
2021/07/23 04:50:16;;;;;;;0.13;0.13;;;17.90;72.90;;;;;;4917541;29;20555;-67
2021/07/23 04:52:42;;;;;;;0.38;0.20;;;18.00;72.00;;;;;;4917061;29;20052;-67
2021/07/23 04:55:09;;;;;;;0.10;0.10;;;18.10;71.90;;;;;;4917541;29;20028;-67
2021/07/23 04:57:42;;;;;;;0.57;0.10;;;18.20;71.50;;;;;;4917140;29;20025;-67
2021/07/23 05:00:09;;;;;;;0.20;0.10;;;18.50;70.30;;;;;;4917125;29;20043;-66
2021/07/23 05:02:36;;;;;;;1.30;0.20;;;18.70;69.70;;;;;;4916612;29;20395;-67
2021/07/23 05:05:01;;;;;;;0.80;0.15;;;19.00;69.20;;;;;;4916968;29;20388;-67
2021/07/23 05:07:27;;;;;;;0.15;0.15;;;19.30;66.80;;;;;;4916980;29;20031;-66
2021/07/23 05:09:53;;;;;;;0.13;0.10;;;19.40;66.00;;;;;;4917193;29;20043;-67
2021/07/23 05:12:18;;;;;;;0.40;0.10;;;19.50;65.90;;;;;;4916902;29;20472;-66
2021/07/23 05:14:44;;;;;;;0.10;0.10;;;19.60;64.90;;;;;;4917116;29;20032;-67
2021/07/23 05:17:10;;;;;;;0.43;0.30;;;19.70;64.20;;;;;;4916937;29;20046;-66
2021/07/23 05:19:37;;;;;;;0.10;0.10;;;19.70;63.50;;;;;;4916532;29;20036;-67
2021/07/23 05:22:04;;;;;;;0.10;0.10;;;19.70;63.60;;;;;;4917003;29;20095;-67
2021/07/23 05:24:31;;;;;;;0.10;0.10;;;19.70;62.90;;;;;;4916522;29;20024;-67
2021/07/23 05:26:58;;;;;;;0.10;0.10;;;19.70;63.30;;;;;;4916659;29;20063;-67
2021/07/23 05:29:24;;;;;;;0.20;0.10;;;19.80;62.70;;;;;;4916535;29;20150;-66
2021/07/23 05:31:49;;;;;;;0.10;0.10;;;19.90;62.40;;;;;;4916647;29;20028;-66
2021/07/23 05:34:15;;;;;;;0.10;0.10;;;20.00;62.40;;;;;;4916530;29;20020;-66
2021/07/23 05:36:41;;;;;;;0.05;0.05;;;20.00;61.00;;;;;;4916717;29;20051;-66
2021/07/23 05:39:09;;;;;;;0.10;0.10;;;20.10;60.80;;;;;;4916303;29;20160;-66
2021/07/23 05:41:35;;;;;;;0.10;0.10;;;20.20;60.90;;;;;;4916272;29;20067;-66
2021/07/23 05:44:01;;;;;;;0.20;0.10;;;20.30;60.00;;;;;;4916591;29;20060;-66
2021/07/23 05:46:27;;;;;;;0.10;0.10;;;20.40;59.50;;;;;;4916312;29;20099;-66
2021/07/23 05:48:53;;;;;;;0.52;0.10;;;20.60;59.60;;;;;;4916303;29;20039;-66
2021/07/23 05:51:19;;;;;;;0.10;0.10;;;20.70;58.50;;;;;;4916240;29;20028;-66
2021/07/23 05:53:45;;;;;;;1.88;0.20;;;20.90;58.80;;;;;;4916032;29;20058;-66
2021/07/23 05:56:10;;;;;;;0.17;0.15;;;21.10;58.50;;;;;;4916518;29;20165;-66
2021/07/23 05:58:37;;;;;;;0.20;0.10;;;21.10;57.10;;;;;;4915964;29;20039;-66
2021/07/23 06:01:07;;;;;;;0.15;0.10;;;21.00;57.10;;;;;;4916454;29;20047;-66
2021/07/23 06:03:34;;;;;;;0.32;0.10;;;21.10;57.60;;;;;;4915925;29;20164;-66
2021/07/23 06:06:03;;;;;;;0.10;0.10;;;21.30;58.00;;;;;;4916317;29;20443;-66
2021/07/23 06:08:29;;;;;;;0.00;0.00;;;21.50;56.80;;;;;;4916129;29;20189;-66
2021/07/23 06:10:55;;;;;;;0.10;0.10;;;21.50;55.20;;;;;;4916013;29;20224;-66
2021/07/23 06:13:21;;;;;;;0.10;0.10;;;21.50;55.50;;;;;;4915711;29;20103;-66
2021/07/23 06:15:47;;;;;;;0.10;0.10;;;21.40;54.80;;;;;;4916241;29;20033;-66
2021/07/23 06:18:12;;;;;;;0.10;0.10;;;21.40;55.70;;;;;;4915722;29;20502;-66
2021/07/23 06:20:40;;;;;;;0.10;0.10;;;21.50;55.80;;;;;;4916091;29;20036;-66
2021/07/23 06:23:05;;;;;;;0.10;0.10;;;21.50;55.50;;;;;;4915816;29;20475;-66
2021/07/23 06:25:31;;;;;;;0.30;0.10;;;21.50;54.70;;;;;;4915761;29;20031;-66
2021/07/23 06:27:57;;;;;;;0.38;0.17;;;21.40;55.40;;;;;;4915853;29;20087;-66
2021/07/23 06:30:22;;;;;;;0.15;0.10;;;21.40;55.30;;;;;;4915506;29;20036;-66
2021/07/23 06:32:48;;;;;;;0.25;0.10;;;21.40;55.00;;;;;;4916185;29;20030;-66
2021/07/23 06:35:14;;;;;;;1.30;0.10;;;21.30;55.40;;;;;;4915687;29;20028;-66
2021/07/23 06:37:39;;;;;;;0.10;0.10;;;21.20;55.30;;;;;;4915665;29;20112;-66
2021/07/23 06:40:06;;;;;;;1.17;0.20;;;21.30;55.20;;;;;;4915599;29;20101;-66
2021/07/23 06:42:34;;;;;;;0.10;0.10;;;21.40;55.20;;;;;;4915557;29;20030;-66
2021/07/23 06:45:00;;;;;;;0.10;0.10;;;21.50;55.30;;;;;;4915692;29;20471;-66
2021/07/23 06:47:25;;;;;;;0.20;0.20;;;21.60;55.30;;;;;;4915739;29;20116;-66
2021/07/23 06:49:51;;;;;;;0.10;0.10;;;21.60;54.50;;;;;;4915522;29;20380;-66
2021/07/23 06:52:17;;;;;;;0.13;0.13;;;21.40;54.50;;;;;;4915539;29;20063;-66
2021/07/23 06:54:43;;;;;;;0.43;0.20;;;21.40;54.70;;;;;;4915395;29;20024;-66
2021/07/23 06:57:09;;;;;;;0.10;0.10;;;21.30;53.40;;;;;;4915841;29;20036;-66
2021/07/23 06:59:35;;;;;;;0.10;0.10;;;21.10;53.00;;;;;;4915221;29;20567;-66
2021/07/23 07:02:02;;;;;;;0.15;0.10;;;20.90;53.10;;;;;;4915821;29;20036;-66
2021/07/23 07:04:28;;;;;;;0.10;0.10;;;20.90;53.80;;;;;;4915547;29;20039;-66
2021/07/23 07:06:57;;;;;;;0.25;0.20;;;21.00;54.50;;;;;;4915490;29;20436;-66
2021/07/23 07:09:24;;;;;;;0.10;0.00;;;21.20;54.90;;;;;;4915502;29;20047;-66
2021/07/23 07:11:50;;;;;;;0.55;0.10;;;21.10;54.50;;;;;;4915581;29;20035;-66
2021/07/23 07:14:16;;;;;;;0.10;0.10;;;21.00;54.50;;;;;;4915551;29;20556;-66
2021/07/23 07:16:42;;;;;;;0.10;0.10;;;20.80;54.20;;;;;;4915247;29;20111;-66
2021/07/23 07:19:08;;;;;;;0.30;0.20;;;20.90;54.50;;;;;;4915136;29;20559;-66
2021/07/23 07:21:34;;;;;;;0.20;0.10;;;20.80;55.40;;;;;;4915358;29;20028;-66
2021/07/23 07:24:00;;;;;;;0.10;0.10;;;20.80;55.00;;;;;;4915451;29;20132;-66
2021/07/23 07:26:29;;;;;;;0.10;0.10;;;20.80;54.60;;;;;;4916677;29;20024;-66
2021/07/23 07:28:55;;;;;;;0.13;0.13;;;20.90;54.70;;;;;;4919047;29;20035;-66
2021/07/23 07:31:20;;;;;;;0.13;0.10;;;20.80;54.00;;;;;;4918696;29;20376;-66
2021/07/23 07:33:46;;;;;;;0.25;0.15;;;20.70;54.90;;;;;;4918546;29;20040;-66
2021/07/23 07:36:18;;;;;;;0.10;0.10;;;20.70;54.50;;;;;;4919078;29;20025;-66
2021/07/23 07:38:47;;;;;;;2.38;0.10;;;20.60;54.50;;;;;;4918343;29;20531;-66
2021/07/23 07:41:20;;;;;;;0.00;0.00;;;20.50;54.80;;;;;;4918716;29;20038;-66
2021/07/23 07:43:46;;;;;;;1.65;0.17;;;20.60;55.30;;;;;;4918422;29;20036;-66
2021/07/23 07:46:13;;;;;;;0.20;0.20;;;20.50;55.10;;;;;;4918787;29;20375;-66
2021/07/23 07:48:38;;;;;;;1.48;0.10;;;20.40;55.40;;;;;;4918569;29;20104;-66
2021/07/23 07:51:06;;;;;;;1.10;0.20;;;20.40;55.40;;;;;;4918492;29;20106;-66
2021/07/23 07:53:32;;;;;;;2.72;0.20;;;20.40;55.20;;;;;;4917905;29;20052;-66
2021/07/23 07:55:58;;;;;;;0.10;0.10;;;20.40;54.70;;;;;;4918439;29;20050;-66
2021/07/23 07:58:23;;;;;;;0.10;0.10;;;20.30;55.30;;;;;;4918457;29;20067;-66
2021/07/23 08:00:49;;;;;;;0.10;0.10;;;20.10;55.10;;;;;;4918120;29;20087;-66
2021/07/23 08:03:15;;;;;;;0.17;0.13;;;20.10;55.10;;;;;;4918245;29;20036;-66
2021/07/23 08:05:41;;;;;;;1.15;0.20;;;20.10;55.40;;;;;;4918182;29;20063;-66
2021/07/23 08:08:09;;;;;;;6.43;0.20;;;20.00;54.50;;;;;;4918123;29;20029;-66
2021/07/23 08:10:45;;;;;;;0.52;0.10;;;19.90;55.20;;;;;;4917880;29;20032;-66
2021/07/23 08:13:11;;;;;;;1.88;0.20;;;20.00;55.50;;;;;;4918033;29;20029;-66
2021/07/23 08:15:38;;;;;;;0.20;0.20;;;19.90;56.00;;;;;;4917768;29;20476;-66
2021/07/23 08:18:04;;;;;;;0.75;0.10;;;19.80;56.00;;;;;;4917869;29;20028;-66
2021/07/23 08:20:30;;;;;;;0.13;0.10;;;19.80;55.90;;;;;;4917669;29;20420;-66
2021/07/23 08:22:57;;;;;;;0.20;0.10;;;19.60;56.10;;;;;;4918078;29;20029;-66
2021/07/23 08:25:23;;;;;;;0.10;0.10;;;19.50;56.70;;;;;;4917954;29;20388;-66
2021/07/23 08:27:49;;;;;;;0.20;0.10;;;19.50;57.50;;;;;;4917864;29;20103;-66
2021/07/23 08:30:15;;;;;;;0.10;0.10;;;19.60;57.40;;;;;;4917894;29;20059;-66
2021/07/23 08:32:48;;;;;;;1.55;0.10;;;19.70;57.90;;;;;;4917408;29;20028;-66
2021/07/23 08:35:14;;;;;;;0.15;0.10;;;19.90;58.00;;;;;;4917725;29;20035;-66
2021/07/23 08:37:40;;;;;;;0.10;0.10;;;19.90;56.70;;;;;;4916324;29;20036;-66
2021/07/23 08:40:06;;;;;;;0.20;0.10;;;19.80;57.20;;;;;;4917311;29;20044;-66
2021/07/23 08:42:34;;;;;;;0.40;0.20;;;19.60;56.80;;;;;;4917266;29;20028;-66
2021/07/23 08:45:03;;;;;;;0.10;0.10;;;19.50;57.20;;;;;;4900435;29;20088;-66
2021/07/23 08:47:28;;;;;;;0.10;0.10;;;19.50;57.10;;;;;;4917495;29;20379;-66
2021/07/23 08:49:54;;;;;;;0.50;0.10;;;19.50;57.70;;;;;;4917803;29;20024;-66
2021/07/23 08:52:40;;;;;;;0.20;0.10;;;19.50;57.60;;;;;;4917401;29;20056;-66
2021/07/23 08:55:07;;;;;;;0.10;0.10;;;19.50;57.60;;;;;;4916972;29;20034;-66
2021/07/23 08:57:34;;;;;;;0.10;0.10;;;19.50;57.00;;;;;;4917298;29;20052;-66
2021/07/23 09:00:04;;;;;;;0.10;0.10;;;19.50;57.40;;;;;;4917210;29;20062;-66
2021/07/23 09:02:51;;;;;;;0.10;0.10;;;19.50;58.20;;;;;;4916943;29;20084;-66
2021/07/23 09:05:18;;;;;;;0.13;0.13;;;19.60;57.70;;;;;;4917219;29;20253;-66
2021/07/23 09:07:44;;;;;;;0.08;0.08;;;19.50;57.40;;;;;;4917033;29;20448;-66
2021/07/23 09:10:09;;;;;;;0.10;0.10;;;19.50;57.90;;;;;;4917165;29;20028;-66
2021/07/23 09:12:46;;;;;;;0.10;0.10;;;19.50;57.70;;;;;;4916682;29;20506;-66
2021/07/23 09:15:28;;;;;;;0.32;0.10;;;19.40;57.80;;;;;;4917008;29;20032;-67
2021/07/23 09:17:55;;;;;;;0.65;0.10;;;19.40;58.10;;;;;;4900172;29;20032;-66
2021/07/23 09:20:31;;;;;;;0.10;0.10;;;19.30;59.00;;;;;;4916674;29;20099;-66
2021/07/23 09:23:01;;;;;;;1.77;0.15;;;19.40;59.80;;;;;;4916746;29;20035;-66
2021/07/23 09:25:40;;;;;;;0.10;0.10;;;19.30;59.00;;;;;;4916730;29;20047;-66
2021/07/23 09:28:31;;;;;;;0.10;0.10;;;19.30;58.50;;;;;;4916633;29;20080;-67
2021/07/23 09:31:05;;;;;;;0.13;0.13;;;19.30;58.80;;;;;;4916657;29;20055;-66
2021/07/23 09:33:32;;;;;;;0.63;0.20;;;19.20;58.50;;;;;;4916536;29;20020;-67
2021/07/23 09:36:10;;;;;;;1.17;0.28;;;19.10;58.30;;;;;;4916382;29;20353;-67
2021/07/23 09:38:43;;;;;;;0.20;0.20;;;19.00;58.90;;;;;;4916539;29;20510;-67
2021/07/23 09:41:13;;;;;;;1.92;0.10;;;19.00;58.90;;;;;;4916408;29;20028;-67
2021/07/23 09:43:45;;;;;;;0.10;0.10;;;19.00;58.90;;;;;;4916494;29;20028;-67
2021/07/23 09:46:20;;;;;;;0.10;0.10;;;19.00;59.00;;;;;;4916429;29;20115;-67
2021/07/23 09:48:48;;;;;;;0.10;0.10;;;19.10;59.40;;;;;;4915941;29;20122;-67
2021/07/23 09:51:14;;;;;;;0.22;0.10;;;19.10;59.10;;;;;;4916204;29;20035;-67
2021/07/23 09:53:40;;;;;;;0.10;0.10;;;19.10;59.20;;;;;;4915858;29;20060;-67
2021/07/23 09:56:08;;;;;;;0.10;0.10;;;19.10;59.60;;;;;;4916341;29;20218;-67
2021/07/23 09:58:39;;;;;;;0.10;0.10;;;19.10;59.00;;;;;;4915929;29;20507;-67
2021/07/23 10:01:10;;;;;;;1.75;0.10;;;19.10;59.30;;;;;;4916048;29;20054;-66
2021/07/23 10:03:45;;;;;;;0.10;0.10;;;19.20;59.30;;;;;;4916051;29;20035;-67
2021/07/23 10:06:15;;;;;;;0.20;0.20;;;19.30;58.90;;;;;;4915963;29;20074;-67
2021/07/23 10:08:53;;;;;;;0.10;0.10;;;19.30;58.50;;;;;;4915994;29;20028;-67
2021/07/23 10:11:20;;;;;;;0.10;0.10;;;19.20;58.90;;;;;;4915969;29;20028;-67
2021/07/23 10:13:48;;;;;;;0.10;0.10;;;19.10;58.20;;;;;;4915573;29;20020;-67
2021/07/23 10:16:15;;;;;;;0.70;0.20;;;19.10;57.70;;;;;;4915996;29;20055;-67
2021/07/23 10:18:42;;;;;;;0.43;0.20;;;19.10;58.10;;;;;;4915679;29;20028;-67
2021/07/23 10:21:11;;;;;;;0.10;0.10;;;19.10;58.60;;;;;;4915742;29;20047;-67
2021/07/23 10:23:38;;;;;;;0.10;0.10;;;19.10;58.60;;;;;;4915939;29;20028;-67
2021/07/23 10:26:05;;;;;;;0.68;0.20;;;19.10;58.20;;;;;;4915678;29;20094;-67
2021/07/23 10:28:40;;;;;;;0.22;0.20;;;19.10;58.40;;;;;;4915854;29;20024;-67
2021/07/23 10:31:18;;;;;;;5.82;0.32;;;19.10;58.60;;;;;;4915633;29;20535;-75
2021/07/23 10:33:56;;;;;;;0.10;0.10;;;19.20;59.70;;;;;;4915508;29;20032;-74
2021/07/23 10:36:27;;;;;;;0.98;0.20;;;19.50;61.60;;;;;;4915603;29;20488;-74
2021/07/23 10:39:05;;;;;;;0.10;0.10;;;19.70;60.50;;;;;;4915586;29;20553;-68
2021/07/23 10:41:32;;;;;;;9.45;0.80;;;19.90;59.30;;;;;;4915341;29;20024;-68
2021/07/23 10:43:58;;;;;;;0.82;0.20;;;19.90;58.50;;;;;;4915496;29;20033;-67
2021/07/23 10:46:42;;;;;;;1.85;0.30;;;19.90;58.80;;;;;;4898584;29;20047;-70
2021/07/23 10:49:08;;;;;;;0.00;0.00;;;20.00;60.50;;;;;;4915541;29;20039;-67
2021/07/23 10:52:15;;;;;;;1.52;0.10;;;20.10;59.80;;;;;;4915356;29;20074;-67
2021/07/23 10:55:16;;;;;;;0.10;0.10;;;20.00;58.30;;;;;;4896229;29;20049;-67
2021/07/23 10:57:42;;;;;;;2.65;0.13;;;19.70;57.60;;;;;;4865785;29;20050;-67
2021/07/23 11:00:08;;;;;;;0.00;0.00;;;19.60;58.60;;;;;;4896599;29;20040;-67
2021/07/23 11:02:34;;;;;;;0.10;0.10;;;19.50;58.90;;;;;;4899886;29;20032;-67
2021/07/23 11:05:10;;;;;;;0.10;0.10;;;19.50;59.30;;;;;;4900302;29;20024;-67
2021/07/23 11:07:36;;;;;;;0.00;0.00;;;19.50;58.70;;;;;;4900310;29;20059;-67
2021/07/23 11:10:03;;;;;;;0.10;0.10;;;19.50;59.30;;;;;;4900437;29;20036;-67
2021/07/23 11:12:31;;;;;;;0.10;0.10;;;19.50;58.80;;;;;;4900544;29;20425;-67
2021/07/23 11:14:59;;;;;;;0.10;0.10;;;19.50;58.40;;;;;;4900081;29;20035;-67
2021/07/23 11:17:29;;;;;;;0.20;0.10;;;19.50;58.90;;;;;;4900235;29;20111;-67
2021/07/23 11:19:58;;;;;;;0.10;0.10;;;19.50;60.00;;;;;;4898706;29;20483;-67
2021/07/23 11:22:30;;;;;;;0.10;0.10;;;19.60;58.10;;;;;;4900381;29;20028;-67
2021/07/23 11:25:00;;;;;;;0.82;0.10;;;19.50;58.20;;;;;;4900229;29;20465;-67
2021/07/23 11:27:34;;;;;;;0.10;0.10;;;19.40;58.40;;;;;;4900159;29;20063;-67
2021/07/23 11:30:12;;;;;;;0.00;0.00;;;19.40;58.50;;;;;;4899857;29;20056;-67
2021/07/23 11:32:48;;;;;;;0.10;0.10;;;19.40;59.50;;;;;;4899857;29;20057;-67
2021/07/23 11:35:14;;;;;;;2.00;0.10;;;19.40;59.60;;;;;;4899810;29;20029;-67
2021/07/23 11:37:40;;;;;;;0.10;0.10;;;19.40;59.80;;;;;;4899721;29;20544;-67
2021/07/23 11:40:07;;;;;;;0.10;0.10;;;19.40;59.20;;;;;;4899685;29;20041;-67
2021/07/23 11:42:39;;;;;;;0.15;0.10;;;19.30;58.80;;;;;;4899774;29;20469;-67
2021/07/23 11:45:06;;;;;;;0.30;0.10;;;19.20;59.50;;;;;;4899948;29;20039;-68
2021/07/23 11:47:34;;;;;;;1.17;0.10;;;19.30;59.80;;;;;;4899626;29;20050;-67
2021/07/23 11:50:02;;;;;;;0.63;0.22;;;19.40;60.00;;;;;;4899471;29;20024;-68
2021/07/23 11:52:28;;;;;;;0.10;0.10;;;19.40;61.10;;;;;;4903950;29;20047;-68
2021/07/23 11:55:00;;;;;;;0.20;0.10;;;19.50;61.50;;;;;;4918095;29;20032;-67
2021/07/23 11:57:28;;;;;;;0.10;0.10;;;19.60;60.60;;;;;;4918690;29;20083;-68
2021/07/23 11:59:54;;;;;;;0.15;0.10;;;19.60;60.90;;;;;;4918000;29;20032;-67
2021/07/23 12:02:28;;;;;;;0.10;0.10;;;19.60;60.40;;;;;;4918207;29;20028;-67
2021/07/23 12:05:06;;;;;;;0.10;0.10;;;19.60;61.60;;;;;;4918070;29;20103;-67
2021/07/23 12:07:32;;;;;;;2.50;0.20;;;19.70;59.90;;;;;;4918089;29;20103;-68
2021/07/23 12:10:00;;;;;;;0.10;0.10;;;19.70;59.80;;;;;;4917771;29;20091;-67
2021/07/23 12:12:26;;;;;;;0.13;0.10;;;19.80;60.00;;;;;;4918086;29;20484;-67
2021/07/23 12:14:52;;;;;;;0.10;0.10;;;19.90;59.20;;;;;;4917751;29;20028;-68
2021/07/23 12:17:21;;;;;;;0.10;0.10;;;19.90;59.00;;;;;;4918305;29;20491;-67
2021/07/23 12:19:55;;;;;;;0.20;0.20;;;19.90;58.90;;;;;;4917546;29;20373;-67
2021/07/23 12:22:21;;;;;;;0.17;0.10;;;19.90;58.20;;;;;;4917934;29;20425;-67
2021/07/23 12:24:47;;;;;;;1.30;0.10;;;19.90;57.60;;;;;;4917681;29;20532;-68
2021/07/23 12:27:17;;;;;;;0.40;0.17;;;19.90;58.10;;;;;;4917747;29;20107;-68
2021/07/23 12:29:43;;;;;;;;;;;19.90;57.90;;;;;;4917916;29;20028;-68
2021/07/23 12:32:14;;;;;;;0.15;0.10;;;19.90;57.70;;;;;;4918016;29;19911;-68
2021/07/23 12:34:41;;;;;;;1.75;0.28;;;19.90;58.00;;;;;;4917439;29;20028;-68
2021/07/23 12:37:17;;;;;;;0.10;0.10;;;19.90;58.40;;;;;;4917942;29;20024;-68
2021/07/23 12:39:52;;;;;;;0.10;0.10;;;19.90;57.70;;;;;;4917327;29;20449;-68
2021/07/23 12:42:19;;;;;;;0.10;0.10;;;19.90;59.00;;;;;;4917454;29;20060;-68
2021/07/23 12:44:45;;;;;;;2.10;0.20;;;20.00;57.50;;;;;;4917272;29;20044;-68
2021/07/23 12:47:24;;;;;;;0.10;0.10;;;19.90;56.90;;;;;;4917464;29;20024;-68
2021/07/23 12:49:52;;;;;;;0.57;0.28;;;19.90;56.20;;;;;;4917241;29;20361;-68
2021/07/23 12:52:18;;;;;;;0.63;0.10;;;19.80;56.60;;;;;;4917287;29;20044;-68
2021/07/23 12:54:49;;;;;;;0.57;0.20;;;19.70;57.00;;;;;;4917032;29;20103;-68
2021/07/23 12:57:22;;;;;;;2.92;0.17;;;19.80;57.70;;;;;;4917929;29;20111;-68
2021/07/23 12:59:52;;;;;;;0.10;0.10;;;19.90;58.20;;;;;;4916970;29;20039;-67
2021/07/23 13:02:19;;;;;;;0.10;0.10;;;19.90;57.30;;;;;;4900399;29;20025;-68
2021/07/23 13:04:45;;;;;;;0.20;0.20;;;19.90;58.10;;;;;;4916986;29;20032;-68
2021/07/23 13:07:12;;;;;;;1.20;0.10;;;19.90;57.90;;;;;;4917424;29;20124;-68
2021/07/23 13:09:45;;;;;;;0.43;0.17;;;19.90;56.90;;;;;;4917139;29;20028;-67
2021/07/23 13:12:12;;;;;;;0.55;0.10;;;19.80;57.00;;;;;;4916903;29;20039;-68
2021/07/23 13:14:39;;;;;;;0.10;0.10;;;19.90;57.40;;;;;;4917001;29;20519;-68
2021/07/23 13:17:05;;;;;;;0.17;0.10;;;19.90;57.40;;;;;;4916807;29;20491;-67
2021/07/23 13:19:31;;;;;;;0.28;0.10;;;19.90;56.80;;;;;;4899835;29;20567;-68
2021/07/23 13:22:02;;;;;;;0.20;0.20;;;19.90;57.00;;;;;;4916623;29;20028;-68
2021/07/23 13:24:29;;;;;;;0.80;0.20;;;19.80;57.00;;;;;;4916323;29;20036;-68